Time;durP1;ratioP1;P1;durP2;ratioP2;P2;SDS_P1;SDS_P2;PMS_P1;PMS_P2;Temp;Humidity;BMP_temperature;BMP_pressure;BME280_temperature;BME280_humidity;BME280_pressure;Samples;Min_cycle;Max_cycle;Signal;HPM_P1;HPM_P2
2021/12/20 00:01:28;;;;;;;5.65;1.58;;;8.30;99.90;;;;;;5015579;28;20033;-55
2021/12/20 00:03:54;;;;;;;3.20;1.48;;;8.20;99.90;;;;;;5015504;28;20022;-57
2021/12/20 00:06:20;;;;;;;4.80;1.45;;;8.20;99.90;;;;;;5015657;28;20056;-58
2021/12/20 00:08:45;;;;;;;6.20;1.70;;;8.20;99.90;;;;;;5017713;28;20042;-56
2021/12/20 00:11:11;;;;;;;4.43;1.58;;;8.20;99.90;;;;;;5035497;28;20036;-58
2021/12/20 00:13:36;;;;;;;2.42;1.20;;;8.20;99.90;;;;;;5035087;28;20018;-58
2021/12/20 00:16:02;;;;;;;3.55;1.30;;;8.30;99.90;;;;;;5015543;28;20049;-55
2021/12/20 00:18:28;;;;;;;3.05;1.48;;;8.20;99.90;;;;;;5015722;28;20034;-57
2021/12/20 00:20:53;;;;;;;3.03;1.00;;;8.30;99.90;;;;;;5015138;28;20558;-56
2021/12/20 00:23:19;;;;;;;3.00;1.20;;;8.30;99.90;;;;;;5032102;28;20116;-58
2021/12/20 00:25:48;;;;;;;4.13;1.40;;;8.30;99.90;;;;;;5031692;28;20436;-58
2021/12/20 00:28:16;;;;;;;2.75;1.33;;;8.20;99.90;;;;;;5015115;28;20500;-58
2021/12/20 00:30:41;;;;;;;3.65;1.08;;;8.20;99.90;;;;;;5016434;28;20388;-58
2021/12/20 00:33:07;;;;;;;3.33;1.35;;;8.30;99.90;;;;;;5015319;28;20018;-57
2021/12/20 00:35:32;;;;;;;5.15;1.35;;;8.30;99.90;;;;;;5031437;28;20102;-57
2021/12/20 00:40:42;;;;;;;3.80;1.00;;;8.20;99.90;;;;;;5016481;28;20112;-57
2021/12/20 00:43:08;;;;;;;5.47;1.20;;;8.30;99.90;;;;;;5016111;28;20061;-57
2021/12/20 00:45:37;;;;;;;3.63;1.05;;;8.30;99.90;;;;;;5015470;28;20128;-58
2021/12/20 00:48:04;;;;;;;6.28;1.20;;;8.30;99.90;;;;;;5016107;28;20119;-58
2021/12/20 00:50:31;;;;;;;4.78;1.15;;;8.30;99.90;;;;;;5014769;28;20030;-58
2021/12/20 00:52:58;;;;;;;4.60;0.98;;;8.40;99.90;;;;;;5016226;28;20059;-56
2021/12/20 00:55:25;;;;;;;3.90;1.17;;;8.40;99.90;;;;;;5014859;28;20116;-56
2021/12/20 00:57:53;;;;;;;4.50;0.98;;;8.40;99.90;;;;;;5014662;28;20161;-58
2021/12/20 01:00:33;;;;;;;3.45;1.33;;;8.40;99.90;;;;;;5014626;28;20030;-56
2021/12/20 01:02:59;;;;;;;5.85;1.15;;;8.40;99.90;;;;;;5014470;28;20030;-58
2021/12/20 01:05:26;;;;;;;3.10;0.80;;;8.40;99.90;;;;;;5013990;28;20034;-57
2021/12/20 01:07:56;;;;;;;2.15;0.95;;;8.40;99.90;;;;;;5014294;28;20022;-58
2021/12/20 01:10:21;;;;;;;1.92;0.80;;;8.30;99.90;;;;;;5015218;28;20029;-56
2021/12/20 01:12:50;;;;;;;5.68;1.02;;;8.30;99.90;;;;;;5014354;28;20022;-56
2021/12/20 01:15:27;;;;;;;3.47;1.20;;;8.30;99.90;;;;;;5015048;28;20022;-58
2021/12/20 01:17:53;;;;;;;1.90;0.93;;;8.30;99.90;;;;;;5015128;28;20022;-58
2021/12/20 01:20:19;;;;;;;4.55;1.52;;;8.30;99.90;;;;;;5015308;28;20026;-57
2021/12/20 01:22:46;;;;;;;3.17;0.90;;;8.20;99.90;;;;;;5014485;28;20026;-55
2021/12/20 01:25:13;;;;;;;4.78;1.20;;;8.20;99.90;;;;;;5015354;28;20033;-56
2021/12/20 01:27:39;;;;;;;4.05;1.08;;;8.20;99.90;;;;;;5013905;28;20121;-59
2021/12/20 01:30:06;;;;;;;6.70;1.08;;;8.20;99.90;;;;;;5014082;28;20061;-58
2021/12/20 01:32:32;;;;;;;5.75;1.13;;;8.30;99.90;;;;;;5015150;28;20022;-57
2021/12/20 01:34:58;;;;;;;5.82;1.15;;;8.20;99.90;;;;;;5013829;28;20022;-56
2021/12/20 01:37:23;;;;;;;5.03;1.15;;;8.30;99.90;;;;;;5013727;28;20030;-56
2021/12/20 01:39:49;;;;;;;2.55;1.00;;;8.30;99.90;;;;;;5015073;28;20026;-56
2021/12/20 01:42:20;;;;;;;3.17;1.00;;;8.30;99.90;;;;;;5014133;28;20026;-58
2021/12/20 01:44:49;;;;;;;2.03;0.77;;;8.20;99.90;;;;;;5029679;28;20064;-56
2021/12/20 01:47:15;;;;;;;5.07;1.08;;;8.20;99.90;;;;;;5034887;28;20049;-58
2021/12/20 01:49:55;;;;;;;2.17;1.13;;;8.20;99.90;;;;;;5033251;28;20472;-56
2021/12/20 01:52:23;;;;;;;2.70;0.90;;;8.20;99.90;;;;;;5034909;28;20017;-57
2021/12/20 01:54:49;;;;;;;2.80;1.23;;;8.00;99.90;;;;;;5033598;28;20032;-58
2021/12/20 01:57:15;;;;;;;2.67;0.80;;;8.00;99.90;;;;;;5033261;28;20116;-53
2021/12/20 01:59:41;;;;;;;11.40;2.75;;;8.00;99.90;;;;;;5034485;28;20079;-57
2021/12/20 02:02:07;;;;;;;4.20;0.95;;;7.90;99.90;;;;;;5033985;28;20116;-57
2021/12/20 02:04:43;;;;;;;4.68;1.00;;;7.90;99.90;;;;;;5034367;28;20567;-56
2021/12/20 02:07:08;;;;;;;3.67;0.80;;;7.90;99.90;;;;;;5033006;28;20029;-57
2021/12/20 02:09:34;;;;;;;4.22;0.93;;;7.90;99.90;;;;;;5033551;28;20037;-56
2021/12/20 02:11:59;;;;;;;7.22;1.10;;;7.90;99.90;;;;;;5034211;28;20021;-55
2021/12/20 02:14:26;;;;;;;7.22;1.60;;;7.70;99.90;;;;;;5033168;28;20440;-57
2021/12/20 02:16:51;;;;;;;3.20;1.00;;;7.80;99.90;;;;;;5031703;28;20022;-56
2021/12/20 02:19:18;;;;;;;3.03;0.90;;;7.80;99.90;;;;;;5032818;28;20028;-57
2021/12/20 02:21:45;;;;;;;4.20;1.00;;;7.80;99.90;;;;;;5034063;28;20029;-58
2021/12/20 02:24:12;;;;;;;4.93;1.55;;;7.70;99.90;;;;;;5032681;28;20419;-57
2021/12/20 02:26:38;;;;;;;4.45;0.88;;;7.60;99.90;;;;;;5033782;28;20025;-57
2021/12/20 02:29:07;;;;;;;8.70;1.33;;;7.50;99.90;;;;;;5033106;28;20024;-54
2021/12/20 02:37:27;;;;;;;6.10;1.13;;;7.60;99.90;;;;;;5033970;28;20036;-54
2021/12/20 02:39:54;;;;;;;8.07;1.15;;;7.60;99.90;;;;;;5032503;28;20032;-55
2021/12/20 02:42:25;;;;;;;4.78;1.67;;;7.50;99.90;;;;;;5032668;28;20025;-55
2021/12/20 02:45:06;;;;;;;8.00;1.33;;;7.40;99.90;;;;;;5033170;28;20026;-54
2021/12/20 02:47:31;;;;;;;5.50;1.37;;;7.50;99.90;;;;;;5032351;28;20032;-58
2021/12/20 02:49:58;;;;;;;2.35;1.40;;;7.50;99.90;;;;;;5032450;28;20116;-55
2021/12/20 02:52:23;;;;;;;7.05;1.58;;;7.40;99.90;;;;;;5033560;28;20026;-54
2021/12/20 02:54:49;;;;;;;5.88;1.83;;;7.40;99.90;;;;;;5032444;28;20017;-57
2021/12/20 02:57:15;;;;;;;8.13;1.50;;;7.30;99.90;;;;;;5033425;28;20176;-55
2021/12/20 02:59:41;;;;;;;10.13;1.70;;;7.30;99.90;;;;;;5032123;28;20029;-55
2021/12/20 03:02:10;;;;;;;4.20;1.30;;;7.40;99.90;;;;;;5032386;28;20025;-55
2021/12/20 03:04:37;;;;;;;6.55;1.50;;;7.40;99.90;;;;;;5032206;28;20021;-55
2021/12/20 03:07:06;;;;;;;10.70;1.75;;;7.30;99.90;;;;;;5031887;28;20048;-58
2021/12/20 03:09:38;;;;;;;4.82;1.40;;;7.30;99.90;;;;;;5033652;28;20024;-54
2021/12/20 03:12:06;;;;;;;7.07;1.70;;;7.30;99.90;;;;;;5033928;28;20025;-55
2021/12/20 03:14:40;;;;;;;4.18;1.33;;;7.20;99.90;;;;;;5031994;28;20030;-53
2021/12/20 03:17:06;;;;;;;5.43;1.15;;;7.30;99.90;;;;;;5033582;28;20476;-55
2021/12/20 03:19:32;;;;;;;5.57;1.10;;;7.30;99.90;;;;;;5031969;28;20029;-57
2021/12/20 03:21:59;;;;;;;8.20;1.92;;;7.10;99.90;;;;;;5033180;28;20538;-54
2021/12/20 03:24:25;;;;;;;10.77;1.83;;;7.10;99.90;;;;;;5032176;28;20056;-52
2021/12/20 03:26:50;;;;;;;13.13;1.65;;;7.10;99.90;;;;;;5031934;28;20029;-57
2021/12/20 03:29:16;;;;;;;5.35;1.45;;;7.00;99.90;;;;;;5036125;28;20040;-56
2021/12/20 03:31:42;;;;;;;10.30;1.70;;;7.00;99.90;;;;;;5037291;28;20017;-53
2021/12/20 03:34:09;;;;;;;18.00;3.60;;;7.00;99.90;;;;;;5026121;28;20086;-56
2021/12/20 03:36:35;;;;;;;15.70;2.10;;;7.00;99.90;;;;;;5016404;28;20041;-56
2021/12/20 03:39:03;;;;;;;5.90;1.38;;;6.90;99.90;;;;;;5016086;28;20071;-58
2021/12/20 03:41:29;;;;;;;7.53;2.88;;;6.90;99.90;;;;;;5017335;28;20025;-56
2021/12/20 03:43:54;;;;;;;15.52;2.65;;;6.80;99.90;;;;;;5015817;28;20049;-57
2021/12/20 03:46:20;;;;;;;9.75;2.03;;;6.90;99.90;;;;;;5017132;28;20030;-55
2021/12/20 03:48:46;;;;;;;11.63;2.45;;;7.00;99.90;;;;;;5017231;28;20022;-58
2021/12/20 03:51:11;;;;;;;11.52;1.75;;;6.90;99.90;;;;;;5016995;28;20112;-55
2021/12/20 03:53:37;;;;;;;9.98;2.20;;;6.90;99.90;;;;;;5016651;28;20030;-57
2021/12/20 03:56:05;;;;;;;12.20;2.45;;;7.00;99.90;;;;;;5015623;28;20029;-58
2021/12/20 03:58:31;;;;;;;13.80;2.25;;;7.00;99.90;;;;;;5015674;28;20026;-56
2021/12/20 04:00:59;;;;;;;13.00;2.53;;;7.00;99.90;;;;;;5015735;28;20033;-56
2021/12/20 04:03:25;;;;;;;8.10;1.73;;;7.00;99.90;;;;;;5034677;28;20029;-58
2021/12/20 04:05:51;;;;;;;11.38;2.33;;;6.90;99.90;;;;;;5035333;28;20033;-57
2021/12/20 04:08:17;;;;;;;7.97;2.17;;;7.00;99.90;;;;;;5035241;28;20116;-55
2021/12/20 04:10:43;;;;;;;9.57;2.17;;;7.10;99.90;;;;;;5036409;28;20125;-53
2021/12/20 04:13:09;;;;;;;16.63;2.25;;;7.10;99.90;;;;;;5036447;28;20495;-58
2021/12/20 04:15:36;;;;;;;9.10;2.42;;;7.00;99.90;;;;;;5036336;28;20022;-56
2021/12/20 04:18:02;;;;;;;7.95;2.30;;;6.90;99.90;;;;;;5035714;28;20036;-55
2021/12/20 04:20:27;;;;;;;5.32;2.00;;;6.90;99.90;;;;;;5035008;28;20502;-58
2021/12/20 04:22:53;;;;;;;10.55;2.20;;;6.80;99.90;;;;;;5036583;28;20033;-56
2021/12/20 04:25:19;;;;;;;16.45;2.67;;;6.80;99.90;;;;;;5036142;28;20040;-55
2021/12/20 04:27:44;;;;;;;9.75;2.30;;;6.80;99.90;;;;;;5034871;28;20476;-54
2021/12/20 04:30:11;;;;;;;11.60;2.60;;;6.70;99.90;;;;;;5034941;28;20096;-58
2021/12/20 04:32:43;;;;;;;16.80;2.35;;;6.70;99.90;;;;;;5035054;28;20018;-57
2021/12/20 04:35:11;;;;;;;8.85;1.55;;;6.60;99.90;;;;;;5036518;28;20045;-53
2021/12/20 04:37:40;;;;;;;19.35;2.30;;;6.60;99.90;;;;;;5037990;28;20049;-54
2021/12/20 04:40:08;;;;;;;8.27;1.73;;;6.50;99.90;;;;;;5035447;28;20108;-56
2021/12/20 04:42:35;;;;;;;9.82;1.83;;;6.40;99.90;;;;;;5035959;28;20026;-58
2021/12/20 04:45:01;;;;;;;8.75;1.55;;;6.30;99.90;;;;;;5035825;28;20025;-55
2021/12/20 04:47:27;;;;;;;9.80;1.88;;;6.30;99.90;;;;;;5035771;28;20033;-58
2021/12/20 04:49:52;;;;;;;13.23;3.05;;;6.20;99.90;;;;;;5034656;28;20048;-57
2021/12/20 04:52:18;;;;;;;18.35;2.45;;;6.10;99.90;;;;;;5034796;28;20028;-58
2021/12/20 04:54:44;;;;;;;13.60;1.73;;;6.00;99.90;;;;;;5034405;28;20116;-57
2021/12/20 04:57:09;;;;;;;13.63;2.53;;;5.90;99.90;;;;;;5034399;28;20053;-57
2021/12/20 04:59:35;;;;;;;12.75;2.20;;;5.80;99.90;;;;;;5034249;28;20431;-58
2021/12/20 05:02:01;;;;;;;5.68;1.63;;;5.80;99.90;;;;;;5035550;28;20029;-56
2021/12/20 05:04:27;;;;;;;16.83;2.20;;;5.70;99.90;;;;;;5034272;28;20025;-57
2021/12/20 05:06:52;;;;;;;12.05;1.90;;;5.60;99.90;;;;;;5035262;28;20061;-56
2021/12/20 05:09:18;;;;;;;10.07;2.47;;;5.60;99.90;;;;;;5035361;28;20093;-58
2021/12/20 05:11:50;;;;;;;11.50;1.75;;;5.50;99.90;;;;;;5035374;28;20164;-58
2021/12/20 05:14:17;;;;;;;12.45;2.30;;;5.40;99.90;;;;;;5034104;28;20028;-57
2021/12/20 05:16:43;;;;;;;14.13;2.70;;;5.40;99.90;;;;;;5034214;28;20045;-58
2021/12/20 05:19:08;;;;;;;9.77;1.50;;;5.30;99.90;;;;;;5034014;28;20021;-56
2021/12/20 05:21:34;;;;;;;6.47;2.13;;;5.10;99.90;;;;;;5035449;28;20130;-56
2021/12/20 05:24:00;;;;;;;8.82;2.30;;;5.00;99.90;;;;;;5035168;28;20028;-58
2021/12/20 05:26:26;;;;;;;15.68;2.63;;;5.00;99.90;;;;;;5033955;28;20053;-58
2021/12/20 05:28:54;;;;;;;7.28;2.03;;;5.00;99.90;;;;;;5033771;28;20079;-57
2021/12/20 05:31:20;;;;;;;16.15;3.78;;;4.90;99.90;;;;;;5034954;28;20017;-58
2021/12/20 05:33:46;;;;;;;7.55;1.75;;;4.80;99.90;;;;;;5034920;28;20093;-57
2021/12/20 05:36:11;;;;;;;6.80;1.80;;;4.70;99.90;;;;;;5033661;28;20021;-58
2021/12/20 05:38:37;;;;;;;12.15;1.88;;;4.60;99.90;;;;;;5033604;28;20029;-58
2021/12/20 05:41:03;;;;;;;7.63;1.40;;;4.50;99.90;;;;;;5034745;28;20063;-56
2021/12/20 05:43:28;;;;;;;9.10;2.30;;;4.50;99.90;;;;;;5034728;28;20025;-54
2021/12/20 05:45:54;;;;;;;10.93;1.60;;;4.30;99.90;;;;;;5034783;28;20026;-54
2021/12/20 05:48:20;;;;;;;7.57;1.58;;;4.40;99.90;;;;;;5035048;28;20033;-58
2021/12/20 05:50:45;;;;;;;13.80;2.17;;;4.30;99.90;;;;;;5034911;28;20033;-58
2021/12/20 05:53:11;;;;;;;11.52;1.98;;;4.20;99.90;;;;;;5034604;28;20111;-58
2021/12/20 05:55:36;;;;;;;6.72;2.30;;;4.10;99.90;;;;;;5033226;28;20032;-55
2021/12/20 05:58:02;;;;;;;7.72;2.65;;;4.00;99.90;;;;;;5034421;28;20064;-55
2021/12/20 06:00:28;;;;;;;8.25;3.58;;;4.10;99.90;;;;;;5033124;28;20021;-58
2021/12/20 06:02:53;;;;;;;10.73;3.05;;;4.10;99.90;;;;;;5033353;28;20060;-53
2021/12/20 06:05:20;;;;;;;8.15;2.97;;;4.10;99.90;;;;;;5034265;28;20057;-57
2021/12/20 06:07:45;;;;;;;12.98;3.22;;;4.20;99.90;;;;;;5034267;28;20026;-58
2021/12/20 06:10:16;;;;;;;12.00;2.97;;;4.20;99.90;;;;;;5033271;28;20120;-57
2021/12/20 06:12:42;;;;;;;18.42;5.78;;;4.20;99.90;;;;;;5034508;28;20017;-56
2021/12/20 06:15:09;;;;;;;73.28;21.20;;;4.20;99.90;;;;;;5034024;28;20028;-57
2021/12/20 06:17:35;;;;;;;38.20;11.05;;;4.20;99.90;;;;;;5034099;28;20025;-57
2021/12/20 06:20:04;;;;;;;47.40;12.23;;;4.10;99.90;;;;;;5032840;28;20089;-58
2021/12/20 06:22:30;;;;;;;24.27;7.32;;;4.00;99.90;;;;;;5033984;28;20034;-57
2021/12/20 06:24:56;;;;;;;21.02;5.68;;;4.00;99.90;;;;;;5034140;28;20083;-54
2021/12/20 06:27:21;;;;;;;19.77;4.85;;;3.90;99.90;;;;;;5033826;28;20027;-55
2021/12/20 06:29:47;;;;;;;17.23;4.65;;;3.90;99.90;;;;;;5034443;28;20022;-55
2021/12/20 06:32:12;;;;;;;14.77;4.07;;;3.80;99.90;;;;;;5034160;28;20033;-57
2021/12/20 06:34:39;;;;;;;37.88;10.55;;;3.80;99.90;;;;;;5034091;28;20018;-56
2021/12/20 06:37:05;;;;;;;27.70;9.55;;;3.80;99.90;;;;;;5033551;28;20029;-58
2021/12/20 06:39:31;;;;;;;19.58;5.50;;;3.80;99.90;;;;;;5033782;28;20025;-55
2021/12/20 06:41:57;;;;;;;13.20;3.30;;;3.80;99.90;;;;;;5033717;28;20028;-56
2021/12/20 06:44:23;;;;;;;10.50;2.97;;;3.80;99.90;;;;;;5033805;28;20037;-58
2021/12/20 06:46:50;;;;;;;10.02;3.08;;;3.80;99.90;;;;;;5032641;28;20025;-57
2021/12/20 06:49:15;;;;;;;14.00;3.17;;;3.70;99.90;;;;;;5032172;28;20026;-58
2021/12/20 06:51:43;;;;;;;13.18;3.60;;;3.70;99.90;;;;;;5033670;28;20425;-58
2021/12/20 06:54:11;;;;;;;14.25;3.47;;;3.70;99.90;;;;;;5032237;28;20104;-57
2021/12/20 06:56:37;;;;;;;12.70;3.45;;;3.70;99.90;;;;;;5032044;28;20025;-56
2021/12/20 06:59:03;;;;;;;14.60;3.40;;;3.70;99.90;;;;;;5033454;28;20025;-56
2021/12/20 07:01:29;;;;;;;14.20;3.20;;;3.60;99.90;;;;;;5032072;28;20468;-58
2021/12/20 07:03:55;;;;;;;15.18;3.90;;;3.60;99.90;;;;;;5031989;28;20026;-56
2021/12/20 07:06:20;;;;;;;11.57;2.67;;;3.50;99.90;;;;;;5033302;28;20542;-57
2021/12/20 07:08:46;;;;;;;8.35;2.63;;;3.40;99.90;;;;;;5033350;28;20029;-56
2021/12/20 07:11:12;;;;;;;9.20;2.92;;;3.30;99.90;;;;;;5032395;28;20024;-55
2021/12/20 07:13:38;;;;;;;9.93;2.65;;;3.30;99.90;;;;;;5033371;28;20022;-57
2021/12/20 07:16:04;;;;;;;13.77;2.78;;;3.20;99.90;;;;;;5032741;28;20049;-54
2021/12/20 07:18:30;;;;;;;12.32;3.13;;;3.10;99.90;;;;;;5033178;28;20021;-58
2021/12/20 07:20:56;;;;;;;7.43;3.00;;;3.20;99.90;;;;;;5032026;28;20052;-55
2021/12/20 07:23:22;;;;;;;10.95;2.40;;;3.10;99.90;;;;;;5032355;28;20416;-58
2021/12/20 07:25:49;;;;;;;4.97;1.90;;;3.10;99.90;;;;;;5032023;28;20029;-57
2021/12/20 07:28:15;;;;;;;6.18;3.15;;;3.20;99.90;;;;;;5031772;28;20052;-57
2021/12/20 07:30:40;;;;;;;9.48;3.22;;;3.10;99.90;;;;;;5032177;28;20093;-56
2021/12/20 07:33:07;;;;;;;14.23;3.05;;;3.10;99.90;;;;;;5032203;28;20048;-57
2021/12/20 07:35:33;;;;;;;12.13;3.13;;;3.10;99.90;;;;;;5033081;28;20071;-55
2021/12/20 07:38:01;;;;;;;11.85;4.75;;;3.10;99.90;;;;;;5032047;28;20029;-56
2021/12/20 07:40:26;;;;;;;10.60;3.80;;;3.10;99.90;;;;;;5033023;28;20029;-56
2021/12/20 07:42:52;;;;;;;8.23;3.03;;;3.10;99.90;;;;;;5032969;28;20029;-58
2021/12/20 07:45:18;;;;;;;10.77;3.42;;;3.10;99.90;;;;;;5032890;28;20022;-55
2021/12/20 07:47:44;;;;;;;12.63;3.13;;;3.10;99.90;;;;;;5033175;28;20021;-57
2021/12/20 07:50:10;;;;;;;11.23;3.20;;;3.00;99.90;;;;;;5031551;28;20079;-56
2021/12/20 07:52:35;;;;;;;19.75;3.85;;;3.00;99.90;;;;;;5031586;28;20093;-57
2021/12/20 07:55:02;;;;;;;8.50;2.35;;;3.20;99.90;;;;;;5032778;28;20037;-58
2021/12/20 07:57:27;;;;;;;12.55;3.58;;;3.60;99.90;;;;;;5031582;28;20025;-56
2021/12/20 07:59:53;;;;;;;17.52;4.60;;;4.20;99.90;;;;;;5032855;28;20089;-58
2021/12/20 08:02:19;;;;;;;21.10;4.47;;;5.00;99.90;;;;;;5031461;28;20018;-57
2021/12/20 08:05:25;;;;;;;17.52;5.00;;;5.50;99.90;;;;;;5032603;28;20037;-57
2021/12/20 08:07:51;;;;;;;10.63;2.85;;;6.20;99.90;;;;;;5033043;28;20491;-56
2021/12/20 08:10:18;;;;;;;15.80;4.32;;;6.90;99.90;;;;;;5031537;28;20018;-55
2021/12/20 08:12:45;;;;;;;18.77;4.03;;;7.40;99.90;;;;;;5032716;28;20387;-58
2021/12/20 08:15:12;;;;;;;15.25;3.20;;;7.70;99.90;;;;;;5036481;28;20021;-56
2021/12/20 08:17:38;;;;;;;14.65;3.10;;;8.10;99.90;;;;;;5035619;28;20057;-56
2021/12/20 08:20:05;;;;;;;16.30;3.22;;;8.70;99.90;;;;;;5036958;28;20030;-57
2021/12/20 08:22:30;;;;;;;10.93;2.55;;;9.20;99.90;;;;;;5036308;28;20029;-55
2021/12/20 08:24:56;;;;;;;11.65;3.00;;;9.40;99.90;;;;;;5036190;28;20028;-54
2021/12/20 08:27:22;;;;;;;13.20;3.47;;;9.70;99.90;;;;;;5036265;28;20040;-57
2021/12/20 08:29:47;;;;;;;15.43;3.60;;;9.50;99.90;;;;;;5034949;28;20101;-55
2021/12/20 08:32:13;;;;;;;13.77;4.22;;;9.50;99.90;;;;;;5036381;28;20467;-57
2021/12/20 08:34:38;;;;;;;17.83;4.20;;;10.00;99.90;;;;;;5035065;28;20017;-59
2021/12/20 08:37:04;;;;;;;14.98;4.80;;;10.90;99.90;;;;;;5035890;28;20472;-58
2021/12/20 08:39:31;;;;;;;11.43;3.28;;;11.60;99.90;;;;;;5035652;28;20036;-56
2021/12/20 08:41:58;;;;;;;17.17;3.60;;;12.10;99.90;;;;;;5034698;28;20025;-57
2021/12/20 08:44:24;;;;;;;14.27;3.95;;;12.50;99.90;;;;;;5036257;28;20113;-59
2021/12/20 08:46:53;;;;;;;11.23;3.63;;;12.80;99.90;;;;;;5034916;28;20083;-57
2021/12/20 08:49:19;;;;;;;14.13;3.50;;;12.70;99.90;;;;;;5034380;28;20025;-59
2021/12/20 08:51:45;;;;;;;14.65;3.35;;;12.60;99.90;;;;;;5035803;28;20021;-56
2021/12/20 08:54:12;;;;;;;14.00;3.50;;;12.40;99.90;;;;;;5035562;28;20052;-58
2021/12/20 08:56:37;;;;;;;16.23;3.72;;;12.70;99.90;;;;;;5034012;28;20029;-59
2021/12/20 08:59:03;;;;;;;13.75;3.42;;;13.10;99.90;;;;;;5035911;28;20021;-58
2021/12/20 09:01:29;;;;;;;12.48;3.38;;;13.70;99.90;;;;;;5030789;28;20026;-59
2021/12/20 09:04:21;;;;;;;10.85;3.40;;;13.80;99.90;;;;;;5014117;28;20144;-57
2021/12/20 09:07:19;;;;;;;10.40;3.20;;;13.80;99.90;;;;;;5014614;28;20018;-53
2021/12/20 09:09:47;;;;;;;9.70;4.72;;;14.40;99.90;;;;;;5015930;28;20056;-55
2021/12/20 09:12:15;;;;;;;12.25;3.47;;;14.10;99.90;;;;;;5022626;28;20021;-55
2021/12/20 09:14:41;;;;;;;15.43;3.70;;;13.90;99.90;;;;;;5035286;28;20021;-55
2021/12/20 09:17:07;;;;;;;12.98;4.57;;;14.20;99.90;;;;;;5034299;28;20029;-55
2021/12/20 09:19:35;;;;;;;11.32;4.50;;;14.20;99.90;;;;;;5033794;28;20072;-53
2021/12/20 09:22:04;;;;;;;16.73;4.53;;;14.50;99.90;;;;;;5018731;28;20029;-51
2021/12/20 09:24:30;;;;;;;11.40;4.07;;;14.70;99.90;;;;;;5013841;28;20113;-50
2021/12/20 09:26:55;;;;;;;17.05;4.38;;;14.60;99.90;;;;;;5014829;28;20087;-52
2021/12/20 09:29:45;;;;;;;15.88;4.15;;;14.20;99.90;;;;;;5027236;28;20088;-54
2021/12/20 09:32:29;;;;;;;14.38;3.83;;;14.20;99.90;;;;;;5041521;28;20021;-55
2021/12/20 09:34:54;;;;;;;16.50;4.00;;;13.90;99.90;;;;;;5032282;28;20415;-59
2021/12/20 09:37:20;;;;;;;10.43;3.72;;;13.40;99.90;;;;;;5032698;28;20018;-54
2021/12/20 09:39:50;;;;;;;11.20;3.55;;;13.00;99.90;;;;;;5034903;28;20030;-56
2021/12/20 09:42:15;;;;;;;11.55;3.80;;;13.30;99.90;;;;;;5033851;28;20029;-57
2021/12/20 09:44:44;;;;;;;14.98;3.90;;;12.50;99.90;;;;;;5035283;28;20456;-56
2021/12/20 09:47:09;;;;;;;15.13;3.58;;;12.50;99.90;;;;;;5023818;28;20057;-59
2021/12/20 09:49:35;;;;;;;11.68;3.17;;;11.80;99.90;;;;;;5013561;28;20053;-57
2021/12/20 09:52:01;;;;;;;14.18;3.53;;;11.80;99.90;;;;;;5013618;28;20029;-55
2021/12/20 09:54:28;;;;;;;14.98;3.92;;;11.90;99.90;;;;;;5014838;28;20017;-59
2021/12/20 09:56:57;;;;;;;16.77;3.38;;;11.40;99.90;;;;;;5014617;28;20022;-59
2021/12/20 09:59:41;;;;;;;13.45;3.60;;;11.20;99.90;;;;;;5014555;28;20021;-54
2021/12/20 10:02:08;;;;;;;17.88;4.35;;;11.20;99.90;;;;;;5018620;28;20030;-58
2021/12/20 10:04:35;;;;;;;16.00;3.50;;;11.00;99.90;;;;;;5024923;28;20095;-58
2021/12/20 10:07:02;;;;;;;17.45;3.97;;;10.70;99.90;;;;;;5026536;28;20030;-59
2021/12/20 10:09:33;;;;;;;12.90;4.10;;;10.20;99.90;;;;;;5014839;28;20018;-58
2021/12/20 10:12:22;;;;;;;18.05;3.80;;;9.90;99.90;;;;;;5014560;28;20057;-53
2021/12/20 10:15:03;;;;;;;24.35;6.18;;;9.80;99.90;;;;;;5014371;28;20059;-55
2021/12/20 10:17:32;;;;;;;21.05;3.70;;;9.90;99.90;;;;;;5013263;28;20026;-58
2021/12/20 10:23:30;;;;;;;26.23;4.55;;;9.10;99.90;;;;;;5014334;28;20036;-56
2021/12/20 10:26:27;;;;;;;16.13;3.58;;;8.60;99.90;;;;;;5012876;28;20121;-54
2021/12/20 10:28:53;;;;;;;20.63;3.38;;;8.40;99.90;;;;;;5027781;28;20025;-57
2021/12/20 10:31:25;;;;;;;16.10;3.58;;;8.10;99.90;;;;;;5029837;28;20025;-56
2021/12/20 10:33:59;;;;;;;17.10;3.35;;;8.00;99.90;;;;;;5041298;28;20164;-55
2021/12/20 10:36:25;;;;;;;15.95;3.63;;;7.90;99.90;;;;;;5013507;28;20030;-57
2021/12/20 10:38:57;;;;;;;12.50;2.78;;;7.60;99.90;;;;;;5013629;28;20416;-56
2021/12/20 10:41:34;;;;;;;9.23;2.45;;;7.90;99.90;;;;;;5013410;28;20058;-54
2021/12/20 10:44:19;;;;;;;15.05;2.95;;;7.90;99.90;;;;;;5012747;28;20034;-55
2021/12/20 10:46:53;;;;;;;19.30;2.78;;;7.60;99.90;;;;;;5028665;28;20079;-56
2021/12/20 10:49:24;;;;;;;12.35;2.72;;;7.40;99.90;;;;;;5033575;28;20060;-58
2021/12/20 10:51:52;;;;;;;13.13;3.17;;;7.30;99.90;;;;;;5032462;28;20022;-56
2021/12/20 10:54:22;;;;;;;15.73;3.58;;;7.20;99.90;;;;;;5033615;28;20029;-57
2021/12/20 10:57:01;;;;;;;14.02;3.00;;;7.00;99.90;;;;;;5032296;28;20108;-56
2021/12/20 10:59:29;;;;;;;16.08;2.78;;;7.00;99.90;;;;;;5032425;28;20017;-54
2021/12/20 11:05:00;;;;;;;16.10;2.85;;;6.90;99.90;;;;;;5034087;28;20052;-59
2021/12/20 11:10:10;;;;;;;10.15;2.50;;;6.80;99.90;;;;;;5033883;28;20088;-58
2021/12/20 11:12:36;;;;;;;15.23;2.70;;;7.00;99.90;;;;;;5033369;28;20025;-57
2021/12/20 11:15:09;;;;;;;13.13;2.40;;;6.90;99.90;;;;;;5032062;28;20124;-56
2021/12/20 11:17:39;;;;;;;10.50;2.63;;;6.70;99.90;;;;;;5033644;28;20056;-57
2021/12/20 11:20:05;;;;;;;9.20;2.63;;;6.70;99.90;;;;;;5033508;28;20086;-55
2021/12/20 11:22:33;;;;;;;11.27;1.98;;;6.90;99.90;;;;;;5032256;28;20048;-55
2021/12/20 11:25:03;;;;;;;14.75;2.42;;;6.70;99.90;;;;;;5033020;28;20025;-55
2021/12/20 11:27:35;;;;;;;13.48;2.85;;;6.60;99.90;;;;;;5032226;28;20021;-57
2021/12/20 11:30:05;;;;;;;13.45;2.95;;;6.80;99.90;;;;;;5031987;28;20082;-57
2021/12/20 11:32:31;;;;;;;12.93;2.85;;;7.10;99.90;;;;;;5023145;28;20022;-57
2021/12/20 11:34:57;;;;;;;12.55;1.80;;;7.00;99.90;;;;;;5024335;28;20022;-55
2021/12/20 11:37:26;;;;;;;4.78;2.45;;;7.00;99.90;;;;;;5013160;28;20053;-58
2021/12/20 11:39:53;;;;;;;9.93;2.30;;;6.90;99.90;;;;;;5016216;28;20029;-52
2021/12/20 11:42:20;;;;;;;15.05;2.70;;;6.90;99.90;;;;;;5013610;28;20112;-55
2021/12/20 11:44:47;;;;;;;13.75;2.13;;;6.80;99.90;;;;;;5028858;28;20025;-56
2021/12/20 11:47:47;;;;;;;9.52;1.67;;;7.00;99.90;;;;;;5032540;28;20040;-53
2021/12/20 11:50:16;;;;;;;11.40;2.50;;;7.00;99.90;;;;;;5028928;28;20057;-54
2021/12/20 11:52:45;;;;;;;13.57;2.15;;;6.80;99.90;;;;;;5036007;28;20018;-53
2021/12/20 11:55:17;;;;;;;8.45;1.95;;;6.80;99.90;;;;;;5036255;28;20050;-54
2021/12/20 11:57:53;;;;;;;11.90;2.08;;;6.80;99.90;;;;;;5035240;28;20048;-57
2021/12/20 12:00:24;;;;;;;10.30;1.65;;;6.90;99.90;;;;;;5039180;28;20021;-52
2021/12/20 12:02:56;;;;;;;8.80;2.13;;;7.00;99.90;;;;;;5047629;28;20009;-58
2021/12/20 12:05:48;;;;;;;;;;;6.80;99.90;;;;;;5039386;28;20043;-56
2021/12/20 12:08:26;;;;;;;6.35;2.08;;;6.80;99.90;;;;;;5032835;28;19909;-58
2021/12/20 12:11:08;;;;;;;15.25;2.25;;;6.70;99.90;;;;;;5035355;28;20032;-58
2021/12/20 12:13:44;;;;;;;16.20;2.83;;;6.90;99.90;;;;;;5035250;28;20028;-58
2021/12/20 12:16:26;;;;;;;15.13;2.55;;;6.90;99.90;;;;;;5035175;28;20068;-56
2021/12/20 12:18:53;;;;;;;5.28;2.00;;;6.90;99.90;;;;;;5034715;28;20052;-56
2021/12/20 12:24:01;;;;;;;9.23;1.52;;;6.90;99.90;;;;;;5035574;28;20029;-57
2021/12/20 12:26:32;;;;;;;11.98;1.88;;;7.00;99.90;;;;;;5034598;28;20029;-57
2021/12/20 12:28:57;;;;;;;12.23;2.20;;;6.90;99.90;;;;;;5035515;28;20022;-58
2021/12/20 12:31:25;;;;;;;12.43;2.10;;;6.90;99.90;;;;;;5035945;28;20017;-58
2021/12/20 12:34:10;;;;;;;12.68;2.00;;;7.00;99.90;;;;;;5034991;28;20025;-56
2021/12/20 12:36:41;;;;;;;12.90;2.40;;;7.00;99.90;;;;;;5034717;28;20053;-54
2021/12/20 12:39:09;;;;;;;7.13;1.98;;;6.90;99.90;;;;;;5034997;28;20027;-53
2021/12/20 12:41:46;;;;;;;5.80;1.30;;;6.90;99.90;;;;;;5036077;28;20072;-56
2021/12/20 12:44:27;;;;;;;4.57;1.40;;;7.00;99.90;;;;;;5034792;28;20048;-54
2021/12/20 12:47:04;;;;;;;3.37;1.30;;;6.80;99.90;;;;;;5034567;28;20113;-58
2021/12/20 12:49:34;;;;;;;10.02;1.45;;;6.70;99.90;;;;;;5034498;28;20116;-55
2021/12/20 12:52:28;;;;;;;14.80;2.30;;;6.60;99.90;;;;;;5035899;28;20105;-57
2021/12/20 12:55:06;;;;;;;5.05;1.30;;;6.60;99.90;;;;;;5035683;28;20014;-55
2021/12/20 12:57:38;;;;;;;7.63;1.45;;;6.60;99.90;;;;;;5036059;28;20021;-56
2021/12/20 13:00:04;;;;;;;;;;;6.70;99.90;;;;;;5033964;28;20045;-58
2021/12/20 13:02:30;;;;;;;7.63;1.95;;;6.70;99.90;;;;;;5034314;28;20376;-57
2021/12/20 13:05:17;;;;;;;7.13;1.58;;;6.60;99.90;;;;;;5034144;28;20110;-55
2021/12/20 13:07:46;;;;;;;6.30;1.48;;;6.70;99.90;;;;;;5014512;28;20052;-55
2021/12/20 13:10:33;;;;;;;3.40;0.90;;;6.60;99.90;;;;;;5014491;28;20058;-58
2021/12/20 13:13:05;;;;;;;4.32;0.82;;;6.50;99.90;;;;;;5015786;28;20014;-56
2021/12/20 13:16:06;;;;;;;4.93;1.40;;;6.50;99.90;;;;;;5015769;28;20018;-57
2021/12/20 13:18:32;;;;;;;5.20;1.45;;;6.40;99.90;;;;;;5015618;28;20026;-57